createdAt,value
2022-10-14T00:02:55.792Z,99282.88
2022-10-14T00:06:04.695Z,99279.17
2022-10-14T00:09:12.291Z,99277.69
2022-10-14T00:12:18.379Z,99275.45
2022-10-14T00:15:24.443Z,99275.36
2022-10-14T00:18:30.679Z,99273.04
2022-10-14T00:21:35.941Z,99270.15
2022-10-14T00:24:41.912Z,99267.63
2022-10-14T00:27:47.976Z,99267.98
2022-10-14T00:30:58.372Z,99271.48
2022-10-14T00:34:04.630Z,99267.19
2022-10-14T00:37:10.963Z,99264.02
2022-10-14T00:40:15.574Z,99263.27
2022-10-14T00:43:22.836Z,99263.70
2022-10-14T00:46:31.378Z,99260.17
2022-10-14T00:49:42.204Z,99261.14
2022-10-14T00:52:48.483Z,99256.71
2022-10-14T00:55:54.690Z,99256.88
2022-10-14T00:59:01.928Z,99254.09
2022-10-14T01:02:08.343Z,99253.16
2022-10-14T01:05:15.282Z,99248.56
2022-10-14T01:08:29.673Z,99246.52
2022-10-14T01:11:41.927Z,99241.73
2022-10-14T01:14:54.968Z,99238.88
2022-10-14T01:18:12.827Z,99238.30
2022-10-14T01:21:26.810Z,99238.02
2022-10-14T01:24:45.356Z,99236.98
2022-10-14T01:28:16.385Z,99236.37
2022-10-14T01:31:25.000Z,99232.27
2022-10-14T01:34:37.726Z,99229.33
2022-10-14T01:37:51.130Z,99230.71
2022-10-14T01:41:04.489Z,99226.34
2022-10-14T01:44:13.402Z,99219.27
2022-10-14T01:47:22.832Z,99218.02
2022-10-14T01:50:32.702Z,99219.16
2022-10-14T01:53:43.670Z,99220.92
2022-10-14T01:56:51.782Z,99220.23
2022-10-14T01:59:59.084Z,99221.27
2022-10-14T02:03:05.386Z,99215.97
2022-10-14T02:06:13.120Z,99218.00
2022-10-14T02:09:28.040Z,99216.44
2022-10-14T02:12:46.152Z,99211.85
2022-10-14T02:16:05.220Z,99213.04
2022-10-14T02:19:25.937Z,99211.94
2022-10-14T02:22:38.955Z,99211.29
2022-10-14T02:25:48.074Z,99206.05
2022-10-14T02:28:56.138Z,99201.92
2022-10-14T02:32:03.386Z,99201.30
2022-10-14T02:35:12.763Z,99199.02
2022-10-14T02:38:20.450Z,99200.91
2022-10-14T02:41:32.210Z,99202.52
2022-10-14T02:44:38.479Z,99200.16
2022-10-14T02:47:44.656Z,99199.12
2022-10-14T02:50:50.847Z,99199.89
2022-10-14T02:53:57.611Z,99198.02
2022-10-14T02:57:03.828Z,99192.51
2022-10-14T03:00:12.106Z,99189.85
2022-10-14T03:03:18.377Z,99183.08
2022-10-14T03:06:24.682Z,99187.26
2022-10-14T03:09:29.231Z,99187.96
2022-10-14T03:12:35.956Z,99185.50
2022-10-14T03:15:42.000Z,99183.50
2022-10-14T03:18:48.127Z,99185.30
2022-10-14T03:21:54.153Z,99182.10
2022-10-14T03:25:00.284Z,99181.47
2022-10-14T03:28:06.872Z,99185.20
2022-10-14T03:31:12.992Z,99183.77
2022-10-14T03:34:19.114Z,99177.13
2022-10-14T03:37:25.331Z,99181.14
2022-10-14T03:40:31.764Z,99177.11
2022-10-14T03:43:37.894Z,99174.33
2022-10-14T03:46:43.951Z,99174.08
2022-10-14T03:49:49.955Z,99166.61
2022-10-14T03:52:56.118Z,99165.44
2022-10-14T03:56:02.226Z,99164.73
2022-10-14T03:59:08.986Z,99165.64
2022-10-14T04:02:15.076Z,99163.92
2022-10-14T04:05:21.183Z,99161.38
2022-10-14T04:08:27.436Z,99154.66
2022-10-14T04:11:33.678Z,99157.23
2022-10-14T04:14:39.837Z,99158.66
2022-10-14T04:17:45.871Z,99154.30
2022-10-14T04:20:51.999Z,99153.01
2022-10-14T04:23:58.126Z,99149.02
2022-10-14T04:27:04.277Z,99144.75
2022-10-14T04:30:12.704Z,99146.14
2022-10-14T04:33:18.865Z,99145.65
2022-10-14T04:36:24.963Z,99147.71
2022-10-14T04:39:31.291Z,99145.39
2022-10-14T04:42:35.767Z,99143.57
2022-10-14T04:45:42.707Z,99140.86
2022-10-14T04:48:50.365Z,99139.73
2022-10-14T04:51:56.809Z,99137.80
2022-10-14T04:55:03.498Z,99138.36
2022-10-14T04:58:09.654Z,99142.70
2022-10-14T05:01:15.821Z,99142.88
2022-10-14T05:04:21.935Z,99143.36
2022-10-14T05:07:28.241Z,99139.11
2022-10-14T05:10:32.688Z,99138.16
2022-10-14T05:13:39.056Z,99144.45
2022-10-14T05:16:43.662Z,99143.17
2022-10-14T05:19:49.833Z,99144.14
2022-10-14T05:22:56.001Z,99145.45
2022-10-14T05:26:02.137Z,99145.23
2022-10-14T05:29:08.419Z,99140.01
2022-10-14T05:32:12.975Z,99144.30
2022-10-14T05:35:34.032Z,99142.13
2022-10-14T05:38:45.751Z,99146.33
2022-10-14T05:41:50.381Z,99143.38
2022-10-14T05:44:56.592Z,99139.93
2022-10-14T05:48:02.798Z,99139.09
2022-10-14T05:51:09.218Z,99136.48
2022-10-14T05:54:15.713Z,99132.71
2022-10-14T05:57:21.817Z,99129.73
2022-10-14T06:00:27.948Z,99127.20
2022-10-14T06:03:34.359Z,99129.40
2022-10-14T06:06:40.483Z,99129.86
2022-10-14T06:09:46.532Z,99129.45
2022-10-14T06:12:52.631Z,99132.21
2022-10-14T06:15:58.768Z,99131.05
2022-10-14T06:19:04.863Z,99130.72
2022-10-14T06:22:11.020Z,99133.71
2022-10-14T06:25:17.279Z,99133.70
2022-10-14T06:28:21.765Z,99138.58
2022-10-14T06:31:32.127Z,99140.11
2022-10-14T06:34:38.829Z,99141.02
2022-10-14T06:37:47.984Z,99141.59
2022-10-14T06:40:55.520Z,99143.12
2022-10-14T06:44:01.672Z,99147.59
2022-10-14T06:47:09.034Z,99145.30
2022-10-14T06:50:15.632Z,99140.96
2022-10-14T06:53:21.887Z,99141.04
2022-10-14T06:56:28.156Z,99137.52
2022-10-14T06:59:32.692Z,99134.93
2022-10-14T07:02:39.956Z,99138.55
2022-10-14T07:05:46.110Z,99143.24
2022-10-14T07:08:52.369Z,99142.42
2022-10-14T07:11:56.813Z,99143.30
2022-10-14T07:15:05.147Z,99140.90
2022-10-14T07:18:11.547Z,99137.64
2022-10-14T07:21:16.040Z,99139.98
2022-10-14T07:24:22.191Z,99140.54
2022-10-14T07:27:28.408Z,99139.05
2022-10-14T07:30:34.611Z,99137.13
2022-10-14T07:33:42.223Z,99135.59
2022-10-14T07:36:48.462Z,99136.11
2022-10-14T07:39:54.536Z,99135.80
2022-10-14T07:43:00.642Z,99133.77
2022-10-14T07:46:08.432Z,99131.86
2022-10-14T07:49:16.942Z,99129.23
2022-10-14T07:52:23.622Z,99128.88
2022-10-14T07:55:29.728Z,99129.14
2022-10-14T07:58:37.493Z,99124.96
2022-10-14T08:01:47.022Z,99124.06
2022-10-14T08:05:13.191Z,99123.60
2022-10-14T08:08:24.408Z,99122.04
2022-10-14T08:11:31.148Z,99120.73
2022-10-14T08:14:37.303Z,99119.69
2022-10-14T08:17:41.798Z,99116.59
2022-10-14T08:20:47.918Z,99113.75
2022-10-14T08:23:55.074Z,99115.41
2022-10-14T08:27:01.223Z,99111.52
2022-10-14T08:30:10.305Z,99110.02
2022-10-14T08:33:17.627Z,99107.48
2022-10-14T08:36:24.373Z,99105.75
2022-10-14T08:39:30.600Z,99105.16
2022-10-14T08:42:41.271Z,99100.33
2022-10-14T08:45:54.357Z,99101.11
2022-10-14T08:49:08.922Z,99101.93
2022-10-14T08:52:18.696Z,99100.13
2022-10-14T08:55:34.497Z,99101.78
2022-10-14T08:58:43.689Z,99103.92
2022-10-14T09:01:58.388Z,99097.92
2022-10-14T09:05:05.137Z,99093.71
2022-10-14T09:08:17.086Z,99095.25
2022-10-14T09:11:25.309Z,99094.89
2022-10-14T09:14:37.652Z,99088.81
2022-10-14T09:17:50.375Z,99090.48
2022-10-14T09:20:57.965Z,99091.87
2022-10-14T09:24:13.478Z,99091.00
2022-10-14T09:27:22.087Z,99090.20
2022-10-14T09:30:32.331Z,99092.59
2022-10-14T09:33:42.259Z,99090.53
2022-10-14T09:40:04.181Z,99084.32
2022-10-14T09:43:18.271Z,99084.14
2022-10-14T09:46:24.647Z,99080.48
2022-10-14T09:49:40.465Z,99081.11
2022-10-14T09:52:44.970Z,99081.08
2022-10-14T09:55:55.574Z,99082.38
2022-10-14T09:59:03.099Z,99078.17
2022-10-14T10:02:22.129Z,99076.06
2022-10-14T10:05:30.613Z,99074.27
2022-10-14T10:08:38.673Z,99065.14
2022-10-14T10:11:44.752Z,99065.02
2022-10-14T10:14:57.415Z,99067.13
2022-10-14T10:18:19.434Z,99069.67
2022-10-14T10:21:29.893Z,99067.56
2022-10-14T10:24:36.063Z,99065.09
2022-10-14T10:27:45.922Z,99067.55
2022-10-14T10:31:05.701Z,99068.84
2022-10-14T10:34:34.797Z,99068.21
2022-10-14T10:37:50.573Z,99062.61
2022-10-14T10:41:03.465Z,99060.73
2022-10-14T10:44:36.447Z,99061.80
2022-10-14T10:47:51.378Z,99062.70
2022-10-14T10:51:01.943Z,99055.71
2022-10-14T10:54:21.990Z,99051.24
2022-10-14T10:57:42.843Z,99052.61
2022-10-14T11:00:55.731Z,99049.21
2022-10-14T11:04:18.272Z,99048.72
2022-10-14T11:07:49.942Z,99047.83
2022-10-14T11:11:19.887Z,99048.00
2022-10-14T11:14:50.650Z,99046.37
2022-10-14T11:18:03.554Z,99046.15
2022-10-14T11:21:22.057Z,99042.73
2022-10-14T11:24:37.422Z,99041.08
2022-10-14T11:27:50.325Z,99037.10
2022-10-14T11:31:02.518Z,99035.63
2022-10-14T11:34:29.772Z,99034.61
2022-10-14T11:37:48.524Z,99034.36
2022-10-14T11:41:02.880Z,99031.35
2022-10-14T11:44:16.725Z,99031.61
2022-10-14T11:47:26.957Z,99030.71
2022-10-14T11:50:39.418Z,99030.77
2022-10-14T11:53:55.900Z,99021.10
2022-10-14T11:57:06.162Z,99016.61
2022-10-14T12:00:18.759Z,99011.23
2022-10-14T12:03:37.773Z,99009.23
2022-10-14T12:06:48.435Z,99008.73
2022-10-14T12:10:00.081Z,99007.96
2022-10-14T12:13:11.836Z,99002.08
2022-10-14T12:16:21.327Z,99000.50
2022-10-14T12:19:29.827Z,99001.64
2022-10-14T12:22:36.879Z,98998.98
2022-10-14T12:25:56.747Z,98995.27
2022-10-14T12:29:04.169Z,98990.17
2022-10-14T12:32:21.471Z,98978.70
2022-10-14T12:35:51.920Z,98978.83
2022-10-14T12:39:28.658Z,98980.56
2022-10-14T12:42:36.611Z,98980.92
2022-10-14T12:45:52.475Z,98981.56
2022-10-14T12:48:59.850Z,98982.02
2022-10-14T12:52:08.855Z,98979.19
2022-10-14T12:55:20.105Z,98981.50
2022-10-14T12:58:35.974Z,98982.68
2022-10-14T13:01:45.919Z,98976.32
2022-10-14T13:04:54.939Z,98975.35
2022-10-14T13:08:27.006Z,98972.53
2022-10-14T13:11:33.068Z,98971.00
2022-10-14T13:14:59.735Z,98972.40
2022-10-14T13:18:37.339Z,98978.62
2022-10-14T13:21:56.184Z,98985.57
2022-10-14T13:25:12.391Z,98997.98
2022-10-14T13:28:28.967Z,99014.77
2022-10-14T13:31:44.771Z,99023.82
2022-10-14T13:34:53.022Z,99024.56
2022-10-14T13:38:03.353Z,99031.06
2022-10-14T13:41:16.378Z,99030.59
2022-10-14T13:44:23.104Z,99032.47
2022-10-14T13:47:29.517Z,99037.00
2022-10-14T13:50:39.465Z,99034.59
2022-10-14T13:53:55.174Z,99032.23
2022-10-14T13:57:42.722Z,99032.70
2022-10-14T14:00:41.494Z,99034.61
2022-10-14T14:03:52.183Z,99037.35
2022-10-14T14:07:24.452Z,99036.43
2022-10-14T14:10:26.568Z,99028.71
2022-10-14T14:13:34.943Z,99026.99
2022-10-14T14:16:49.582Z,99023.78
2022-10-14T14:19:57.395Z,99020.89
2022-10-14T14:23:04.978Z,99016.51
2022-10-14T14:26:19.055Z,99011.23
2022-10-14T14:29:29.379Z,99011.11
2022-10-14T14:32:37.727Z,99007.70
2022-10-14T14:35:51.850Z,99006.27
2022-10-14T14:38:59.564Z,99002.00
2022-10-14T14:42:05.714Z,99002.76
2022-10-14T14:45:18.099Z,99002.71
2022-10-14T14:48:24.604Z,98999.55
2022-10-14T14:51:35.111Z,99000.19
2022-10-14T14:54:47.312Z,99005.58
2022-10-14T14:58:01.856Z,99000.52
2022-10-14T15:01:08.816Z,98993.83
2022-10-14T15:04:19.531Z,98991.54
2022-10-14T15:07:27.215Z,98987.59
2022-10-14T15:10:33.753Z,98987.13
2022-10-14T15:13:53.415Z,98989.09
2022-10-14T15:17:00.165Z,98988.12
2022-10-14T15:20:30.036Z,98986.59
2022-10-14T15:24:00.533Z,98989.19
2022-10-14T15:27:34.990Z,98987.02
2022-10-14T15:30:55.767Z,98984.96
2022-10-14T15:34:02.090Z,98983.64
2022-10-14T15:37:12.342Z,98982.80
2022-10-14T15:40:21.067Z,98978.08
2022-10-14T15:43:28.749Z,98977.80
2022-10-14T15:46:54.061Z,98980.02
2022-10-14T15:50:00.519Z,98978.75
2022-10-14T15:53:06.620Z,98977.12
2022-10-14T15:56:11.541Z,98979.39
2022-10-14T15:59:18.885Z,98976.42
2022-10-14T16:02:30.384Z,98973.96
2022-10-14T16:05:36.856Z,98977.98
2022-10-14T16:08:43.558Z,98978.00
2022-10-14T16:11:57.412Z,98977.02
2022-10-14T16:18:14.936Z,98970.64
2022-10-14T16:21:19.380Z,98973.41
2022-10-14T16:24:26.812Z,98976.54
2022-10-14T16:27:32.875Z,98981.45
2022-10-14T16:30:37.479Z,98980.82
2022-10-14T16:33:45.712Z,98982.40
2022-10-14T16:36:52.755Z,98982.68
2022-10-14T16:39:58.926Z,98986.93
2022-10-14T16:43:05.050Z,98985.27
2022-10-14T16:46:11.939Z,98983.27
2022-10-14T16:49:21.060Z,98989.23
2022-10-14T16:52:27.177Z,98995.27
2022-10-14T16:55:32.021Z,98996.63
2022-10-14T16:58:38.128Z,98994.59
2022-10-14T17:01:44.489Z,98999.91
2022-10-14T17:04:51.520Z,99003.64
2022-10-14T17:07:57.650Z,99014.52
2022-10-14T17:11:02.110Z,99015.89
2022-10-14T17:14:08.417Z,99013.38
2022-10-14T17:17:14.797Z,99013.17
2022-10-14T17:20:22.120Z,99014.11
2022-10-14T17:23:29.520Z,99015.75
2022-10-14T17:26:36.535Z,99016.06
2022-10-14T17:29:42.683Z,99013.60
2022-10-14T17:32:47.190Z,99014.43
2022-10-14T17:35:59.761Z,99015.62
2022-10-14T17:39:06.170Z,99014.07
2022-10-14T17:42:12.408Z,99015.30
2022-10-14T17:45:19.727Z,99015.52
2022-10-14T17:48:25.782Z,99020.94
2022-10-14T17:51:30.341Z,99021.58
2022-10-14T17:54:36.446Z,99016.16
2022-10-14T17:57:41.001Z,99015.05
2022-10-14T18:00:47.152Z,99015.91
2022-10-14T18:03:51.809Z,99012.49
2022-10-14T18:06:58.679Z,99012.58
2022-10-14T18:10:04.934Z,99015.09
2022-10-14T18:13:11.111Z,99015.92
2022-10-14T18:16:17.510Z,99011.90
2022-10-14T18:19:23.639Z,99010.98
2022-10-14T18:22:28.265Z,99016.44
2022-10-14T18:25:38.050Z,99012.15
2022-10-14T18:28:45.912Z,99010.56
2022-10-14T18:31:53.120Z,99009.52
2022-10-14T18:34:59.211Z,99012.77
2022-10-14T18:38:05.313Z,99012.59
2022-10-14T18:41:14.445Z,99009.63
2022-10-14T18:44:20.791Z,99005.97
2022-10-14T18:47:27.210Z,99003.32
2022-10-14T18:50:33.261Z,99008.11
2022-10-14T18:53:41.676Z,99007.27
2022-10-14T18:56:48.873Z,99005.63
2022-10-14T18:59:55.033Z,99004.70
2022-10-14T19:02:59.656Z,99003.32
2022-10-14T19:06:06.902Z,98999.02
2022-10-14T19:09:13.986Z,98998.57
2022-10-14T19:12:34.043Z,99001.00
2022-10-14T19:15:45.408Z,99005.45
2022-10-14T19:18:57.079Z,99007.90
2022-10-14T19:22:03.456Z,99011.89
2022-10-14T19:25:08.831Z,99007.77
2022-10-14T19:28:14.885Z,99005.88
2022-10-14T19:31:25.043Z,99003.61
2022-10-14T19:34:31.620Z,99002.96
2022-10-14T19:37:37.939Z,99002.79
2022-10-14T19:40:43.991Z,99005.80
2022-10-14T19:43:50.303Z,99006.15
2022-10-14T19:46:56.540Z,99003.83
2022-10-14T19:50:02.626Z,99006.09
2022-10-14T19:53:07.185Z,99003.92
2022-10-14T19:56:14.672Z,99005.35
2022-10-14T19:59:21.397Z,99001.80
2022-10-14T20:02:27.539Z,99006.92
2022-10-14T20:05:32.650Z,99005.98
2022-10-14T20:08:39.396Z,99007.53
2022-10-14T20:11:45.946Z,99004.52
2022-10-14T20:14:52.015Z,99005.95
2022-10-14T20:17:56.569Z,99006.32
2022-10-14T20:21:04.374Z,99005.45
2022-10-14T20:24:10.884Z,99006.64
2022-10-14T20:27:17.315Z,99004.27
2022-10-14T20:30:23.552Z,99003.71
2022-10-14T20:33:31.730Z,99003.98
2022-10-14T20:36:37.924Z,99006.38
2022-10-14T20:39:42.401Z,99005.70
2022-10-14T20:42:48.627Z,99002.55
2022-10-14T20:45:56.344Z,98998.30
2022-10-14T20:49:03.185Z,99001.41
2022-10-14T20:52:10.102Z,98999.38
2022-10-14T20:55:16.090Z,99004.00
2022-10-14T20:58:23.219Z,99001.48
2022-10-14T21:01:30.776Z,98999.95
2022-10-14T21:04:37.013Z,98994.87
2022-10-14T21:07:41.642Z,98991.68
2022-10-14T21:10:47.699Z,98992.81
2022-10-14T21:13:55.828Z,98990.21
2022-10-14T21:17:02.055Z,98985.80
2022-10-14T21:20:09.891Z,98986.51
2022-10-14T21:23:16.120Z,98981.13
2022-10-14T21:26:22.151Z,98978.13
2022-10-14T21:29:28.475Z,98976.06
2022-10-14T21:32:34.686Z,98976.27
2022-10-14T21:35:39.187Z,98974.77
2022-10-14T21:38:45.473Z,98976.48
2022-10-14T21:41:52.026Z,98973.61
2022-10-14T21:44:58.299Z,98971.31
2022-10-14T21:48:04.565Z,98966.08
2022-10-14T21:51:13.310Z,98964.73
2022-10-14T21:54:19.298Z,98963.16
2022-10-14T21:57:25.714Z,98962.96
2022-10-14T22:00:32.140Z,98959.27
2022-10-14T22:03:39.189Z,98956.21
2022-10-14T22:06:45.384Z,98952.10
2022-10-14T22:09:49.936Z,98945.09
2022-10-14T22:12:58.453Z,98944.09
2022-10-14T22:16:05.039Z,98944.88
2022-10-14T22:19:12.014Z,98945.14
2022-10-14T22:22:18.050Z,98947.09
2022-10-14T22:25:24.007Z,98945.05
2022-10-14T22:28:30.834Z,98949.73
2022-10-14T22:31:37.659Z,98949.15
2022-10-14T22:34:45.312Z,98950.91
2022-10-14T22:37:51.662Z,98950.83
2022-10-14T22:41:01.507Z,98945.70
2022-10-14T22:44:08.542Z,98945.61
2022-10-14T22:47:14.609Z,98948.39
2022-10-14T22:50:20.892Z,98950.71
2022-10-14T22:53:25.445Z,98948.77
2022-10-14T22:56:32.942Z,98945.66
2022-10-14T22:59:39.332Z,98947.92
2022-10-14T23:02:46.481Z,98956.25
2022-10-14T23:05:52.765Z,98953.24
2022-10-14T23:09:00.464Z,98956.90
2022-10-14T23:12:07.161Z,98954.42
2022-10-14T23:15:13.845Z,98953.48
2022-10-14T23:18:19.964Z,98956.05
2022-10-14T23:21:25.250Z,98955.13
2022-10-14T23:24:31.650Z,98955.22
2022-10-14T23:27:37.903Z,98949.90
2022-10-14T23:30:44.181Z,98949.52
2022-10-14T23:33:49.241Z,98944.25
2022-10-14T23:40:06.961Z,98938.98
2022-10-14T23:43:13.028Z,98942.42
2022-10-14T23:46:19.098Z,98944.50
2022-10-14T23:49:26.439Z,98943.00
2022-10-14T23:52:32.924Z,98939.06
2022-10-14T23:55:37.355Z,98936.25
2022-10-14T23:58:43.467Z,98939.55
